Kirtley, Wyoming
Current Conditions -  °F | °C
As of 8:35 PM on Saturday 24 Jan 2015 (Local Time) from KGUR Reporting Station
Overcast Overcast  
Wind Chill: 38°   Ceiling: 7000
Heat Index: 44°   Visibility: 10mi
Dew Point: 34°   Wind: 15mph
Humidity: 67%   Direction: 300°WNW
Pressure: 30.13"   Gusts: 23mph
Location:  42.8183°N, 104.414°W
Report Text: KGUR 250335Z AUTO 30013G20KT 10SM OVC070 07/01 A3013 RMK AO2 T00690012
Loading
Personal Weather Stations






























Interactive Weather Map New forecast layout! Learn more

10-Day Weather Forecast

Advertisements
Track Severe Weather on mobile